Time;durP1;ratioP1;P1;durP2;ratioP2;P2;SDS_P1;SDS_P2;PMS_P1;PMS_P2;Temp;Humidity;BMP_temperature;BMP_pressure;BME280_temperature;BME280_humidity;BME280_pressure;Samples;Min_cycle;Max_cycle;Signal;HPM_P1;HPM_P2
2021/05/22 05:03:10;;;;;;;;;0.00;0.00;;;;;18.14;48.23;100505.31;5111187;27;46104;-75
2021/05/22 05:05:35;;;;;;;;;0.00;0.00;;;;;18.29;47.88;100504.28;5087300;27;45373;-75
2021/05/22 05:08:01;;;;;;;;;0.00;0.00;;;;;18.45;47.55;100511.19;5081867;27;56136;-75
2021/05/22 05:10:26;;;;;;;;;0.00;0.00;;;;;18.61;47.51;100518.94;5095376;27;67114;-75
2021/05/22 05:12:53;;;;;;;;;0.00;0.00;;;;;18.77;47.45;100507.19;5093429;27;46110;-75
2021/05/22 05:15:18;;;;;;;;;0.00;0.00;;;;;18.93;46.75;100508.75;5095904;27;45644;-76
2021/05/22 05:17:44;;;;;;;;;0.00;0.00;;;;;19.08;46.82;100517.44;5097872;27;45440;-75
2021/05/22 05:20:10;;;;;;;;;2.00;0.00;;;;;19.23;46.88;100510.19;5078210;27;45459;-75
2021/05/22 05:22:35;;;;;;;;;0.00;0.00;;;;;19.36;46.49;100514.59;5077102;27;47996;-76
2021/05/22 05:25:01;;;;;;;;;0.00;0.00;;;;;19.48;45.80;100515.50;5097499;27;62937;-76
2021/05/22 05:27:26;;;;;;;;;0.25;0.00;;;;;19.59;45.96;100520.88;5083131;27;45144;-76
2021/05/22 05:29:51;;;;;;;;;0.00;0.00;;;;;19.69;45.50;100515.69;5095298;27;64349;-77
2021/05/22 05:32:17;;;;;;;;;0.00;0.00;;;;;19.78;45.61;100514.97;5096585;27;45697;-77
2021/05/22 05:34:42;;;;;;;;;0.00;0.00;;;;;19.88;45.20;100519.63;5082645;27;60522;-76
2021/05/22 05:37:11;;;;;;;;;0.00;0.00;;;;;19.96;45.41;100522.56;5088376;27;56916;-76
2021/05/22 05:39:37;;;;;;;;;0.00;0.00;;;;;20.04;45.06;100513.97;5066632;27;45367;-76
2021/05/22 05:42:03;;;;;;;;;0.00;0.00;;;;;20.13;44.81;100526.63;5078232;27;46300;-76
2021/05/22 05:44:29;;;;;;;;;0.00;0.00;;;;;20.19;44.90;100511.09;5110422;27;45241;-75
2021/05/22 05:46:54;;;;;;;;;0.00;0.00;;;;;20.27;44.61;100518.53;5083933;27;45238;-76
2021/05/22 05:49:19;;;;;;;;;0.00;0.00;;;;;20.34;44.70;100525.94;5095181;27;45217;-76
2021/05/22 05:51:45;;;;;;;;;0.00;0.00;;;;;20.41;44.51;100534.28;5081769;27;52862;-76
2021/05/22 05:54:10;;;;;;;;;0.00;0.00;;;;;20.45;44.47;100522.41;5094515;27;59719;-76
2021/05/22 05:56:36;;;;;;;;;0.00;0.00;;;;;20.52;44.11;100527.28;5094209;27;45493;-77
2021/05/22 05:59:01;;;;;;;;;0.25;0.00;;;;;20.57;44.04;100530.41;5088421;27;45342;-77
2021/05/22 06:01:26;;;;;;;;;1.25;0.00;;;;;20.62;44.16;100525.53;5081714;27;62924;-78
2021/05/22 06:03:52;;;;;;;;;0.00;0.00;;;;;20.68;43.98;100538.44;5094913;27;53001;-77
2021/05/22 06:06:19;;;;;;;;;1.00;0.00;;;;;20.72;43.85;100544.34;5094613;27;57592;-77
2021/05/22 06:08:45;;;;;;;;;0.00;0.00;;;;;20.76;43.40;100540.50;5086115;27;45417;-76
2021/05/22 06:11:13;;;;;;;;;0.00;0.00;;;;;20.80;43.66;100541.06;5093305;27;45306;-77
2021/05/22 06:13:38;;;;;;;;;0.00;0.00;;;;;20.85;43.54;100546.03;5086730;27;45250;-77
2021/05/22 06:18:36;;;;;;;;;1.00;0.00;;;;;20.91;43.13;100546.41;5067080;27;45876;-80
2021/05/22 06:23:56;;;;;;;;;0.50;0.50;;;;;20.23;41.27;100561.44;5092848;27;45306;-91
2021/05/22 06:26:21;;;;;;;;;1.00;1.00;;;;;19.27;41.89;100580.91;5099174;27;45348;-92
2021/05/22 06:28:47;;;;;;;;;0.75;0.75;;;;;18.36;43.23;100565.91;5096370;27;47478;-86
2021/05/22 06:31:12;;;;;;;;;0.50;0.00;;;;;17.76;44.62;100583.09;5126196;27;46842;-90
2021/05/22 06:38:09;;;;;;;;;0.25;0.00;;;;;16.74;45.55;100575.34;5100973;27;45476;-80
2021/05/22 06:40:35;;;;;;;;;4.50;2.00;;;;;16.31;46.05;100588.47;5057477;27;45371;-78
2021/05/22 06:44:57;;;;;;;;;2.00;0.00;;;;;16.09;47.95;100628.66;5058204;28;45480;-74
2021/05/22 06:47:23;;;;;;;;;0.00;0.00;;;;;16.15;47.77;100635.41;5042238;28;45447;-74
2021/05/22 06:49:48;;;;;;;;;0.50;0.25;;;;;16.17;47.60;100618.44;5037034;28;58000;-74
2021/05/22 06:52:14;;;;;;;;;1.25;1.25;;;;;16.23;47.70;100632.28;5051612;28;55594;-74
2021/05/22 06:54:39;;;;;;;;;2.75;1.00;;;;;16.26;47.65;100632.13;5052184;28;49721;-74
2021/05/22 06:57:05;;;;;;;;;2.00;0.00;;;;;16.30;47.86;100633.63;5054304;28;45438;-75
2021/05/22 06:59:30;;;;;;;;;0.75;0.50;;;;;16.32;47.62;100631.78;5036104;28;45459;-76
2021/05/22 07:01:55;;;;;;;;;4.00;0.00;;;;;16.37;47.54;100640.28;5058129;28;45448;-75
2021/05/22 07:04:21;;;;;;;;;1.50;1.50;;;;;16.41;47.61;100640.97;5038393;28;45459;-75
2021/05/22 07:06:46;;;;;;;;;2.00;0.75;;;;;16.43;47.51;100652.34;5049586;28;45338;-75
2021/05/22 07:09:12;;;;;;;;;1.50;1.50;;;;;16.44;47.13;100640.81;5047436;28;45377;-74
2021/05/22 07:14:07;;;;;;;;;0.00;0.00;;;;;16.86;49.15;100587.88;5099633;27;45595;-63
2021/05/22 07:16:33;;;;;;;;;0.00;0.00;;;;;17.15;48.53;100583.44;5087777;27;55838;-62
2021/05/22 07:18:58;;;;;;;;;0.00;0.00;;;;;17.42;48.50;100587.97;5091845;27;45444;-62
2021/05/22 07:21:23;;;;;;;;;0.25;0.25;;;;;17.66;48.04;100590.84;5087599;27;55868;-62
2021/05/22 07:23:49;;;;;;;;;0.00;0.00;;;;;17.89;47.64;100590.28;5107721;27;57739;-61
2021/05/22 07:26:14;;;;;;;;;0.75;0.75;;;;;18.10;47.10;100603.94;5094558;27;45372;-62
2021/05/22 07:28:40;;;;;;;;;0.00;0.00;;;;;18.31;47.19;100602.59;5095072;27;46607;-64
2021/05/22 07:31:05;;;;;;;;;3.25;1.00;;;;;18.50;46.89;100617.31;5091107;27;45343;-60
2021/05/22 07:33:33;;;;;;;;;0.00;0.00;;;;;18.67;46.76;100605.47;5095873;27;64585;-61
2021/05/22 07:35:59;;;;;;;;;1.25;0.50;;;;;18.83;46.22;100613.25;5094682;27;45699;-61
2021/05/22 07:38:24;;;;;;;;;3.25;1.00;;;;;18.95;46.18;100611.53;5096122;27;59048;-61
2021/05/22 07:40:49;;;;;;;;;4.50;0.50;;;;;19.07;46.36;100612.47;5079179;27;62005;-61
2021/05/22 07:43:17;;;;;;;;;1.00;0.50;;;;;19.18;45.84;100629.53;5093494;27;55840;-61
2021/05/22 07:45:42;;;;;;;;;0.50;0.00;;;;;19.28;46.01;100638.59;5095857;27;45242;-61
2021/05/22 07:48:08;;;;;;;;;0.50;0.50;;;;;19.36;45.26;100631.84;5095254;27;56315;-61
2021/05/22 07:50:33;;;;;;;;;1.00;1.00;;;;;19.42;45.17;100631.38;5096646;27;45298;-61
2021/05/22 07:52:59;;;;;;;;;2.00;0.25;;;;;19.48;45.63;100644.28;5095371;27;45537;-62
2021/05/22 07:55:24;;;;;;;;;2.25;0.00;;;;;19.55;45.42;100642.03;5095299;27;54352;-62
2021/05/22 07:57:50;;;;;;;;;1.25;0.00;;;;;19.60;44.94;100650.53;5095459;27;58295;-61
2021/05/22 08:00:16;;;;;;;;;2.75;0.00;;;;;19.65;45.06;100653.72;5095647;27;45198;-62
2021/05/22 08:02:44;;;;;;;;;1.50;0.00;;;;;19.70;44.55;100658.72;5095833;27;45436;-62
2021/05/22 08:05:11;;;;;;;;;0.00;0.00;;;;;19.73;44.57;100650.47;5095860;27;45335;-62
2021/05/22 21:26:33;;;;;;;;;0.00;0.00;;;;;19.10;48.69;101083.75;5112747;27;45418;-68
2021/05/22 21:28:59;;;;;;;;;0.00;0.00;;;;;19.22;48.07;101094.59;5096120;27;45355;-69
2021/05/22 21:31:25;;;;;;;;;0.00;0.00;;;;;19.33;47.85;101075.25;5083990;27;45204;-70
2021/05/22 21:33:50;;;;;;;;;0.00;0.00;;;;;19.44;48.28;101077.22;5096845;27;45152;-70
2021/05/22 21:36:15;;;;;;;;;1.00;1.00;;;;;19.57;47.46;101077.25;5096301;27;45196;-70
2021/05/22 21:38:41;;;;;;;;;0.50;0.50;;;;;19.72;47.75;101087.88;5108832;27;46823;-69
2021/05/22 21:41:06;;;;;;;;;0.75;0.00;;;;;19.84;47.47;101083.53;5078386;27;45289;-69
2021/05/22 21:43:32;;;;;;;;;0.00;0.00;;;;;19.97;46.92;101081.75;5094456;27;52314;-69
2021/05/22 21:45:57;;;;;;;;;1.00;0.00;;;;;20.09;46.91;101088.06;5092583;27;45175;-70
2021/05/22 21:48:23;;;;;;;;;1.75;0.00;;;;;20.21;46.84;101086.38;5087892;27;45162;-70
2021/05/22 21:50:48;;;;;;;;;1.00;0.00;;;;;20.30;46.35;101089.38;5097181;27;45246;-69
2021/05/22 21:53:14;;;;;;;;;0.50;0.00;;;;;20.39;46.23;101091.41;5095577;27;56117;-69
2021/05/22 21:55:39;;;;;;;;;0.00;0.00;;;;;20.48;46.17;101089.06;5096768;27;55398;-71
2021/05/22 21:58:06;;;;;;;;;0.00;0.00;;;;;20.56;45.79;101097.38;5094649;27;45558;-78
2021/05/22 22:00:47;;;;;;;;;0.75;0.75;;;;;20.63;45.13;101100.47;5095120;27;45389;-79
2021/05/22 22:03:42;;;;;;;;;1.00;0.75;;;;;20.67;45.01;101096.63;5093722;27;45474;-71
2021/05/22 22:06:10;;;;;;;;;0.00;0.00;;;;;20.71;45.13;101105.28;5109845;27;46193;-71
